createdAt,value
2018-09-30T00:00:39.820Z,2.33
2018-09-30T00:03:08.487Z,1.70
2018-09-30T00:05:37.151Z,1.73
2018-09-30T00:08:05.823Z,1.70
2018-09-30T00:10:34.500Z,1.70
2018-09-30T00:13:03.856Z,1.60
2018-09-30T00:15:32.531Z,1.83
2018-09-30T00:18:01.209Z,1.50
2018-09-30T00:20:29.888Z,1.23
2018-09-30T00:22:58.568Z,1.47
2018-09-30T00:25:32.811Z,1.40
2018-09-30T00:28:01.479Z,1.30
2018-09-30T00:30:30.145Z,1.30
2018-09-30T00:32:58.810Z,1.37
2018-09-30T00:35:27.482Z,1.50
2018-09-30T00:37:56.153Z,3.27
2018-09-30T00:40:24.829Z,2.70
2018-09-30T00:42:53.520Z,1.47
2018-09-30T00:45:22.196Z,2.10
2018-09-30T00:47:50.859Z,1.40
2018-09-30T00:50:19.532Z,1.90
2018-09-30T00:52:48.203Z,1.20
2018-09-30T00:55:16.875Z,1.20
2018-09-30T00:57:45.703Z,1.33
2018-09-30T01:00:14.384Z,1.70
2018-09-30T01:02:43.191Z,1.33
2018-09-30T01:05:11.928Z,1.50
2018-09-30T01:07:40.592Z,1.57
2018-09-30T01:10:09.375Z,1.17
2018-09-30T01:12:38.097Z,1.17
2018-09-30T01:15:07.095Z,1.40
2018-09-30T01:17:35.899Z,1.00
2018-09-30T01:20:04.699Z,1.40
2018-09-30T01:22:34.274Z,1.03
2018-09-30T01:25:02.956Z,0.93
2018-09-30T01:27:31.627Z,1.00
2018-09-30T01:30:00.324Z,1.53
2018-09-30T01:32:28.991Z,1.10
2018-09-30T01:34:57.672Z,1.20
2018-09-30T01:37:26.347Z,1.17
2018-09-30T01:39:55.023Z,1.20
2018-09-30T01:42:23.709Z,1.60
2018-09-30T01:47:35.678Z,1.67
2018-09-30T01:50:04.416Z,0.97
2018-09-30T01:52:47.420Z,0.90
2018-09-30T01:55:16.099Z,1.03
2018-09-30T01:57:44.804Z,1.10
2018-09-30T02:00:13.487Z,1.30
2018-09-30T02:02:42.159Z,1.30
2018-09-30T02:05:10.831Z,1.30
2018-09-30T02:07:39.491Z,1.30
2018-09-30T02:10:08.167Z,1.10
2018-09-30T02:12:36.843Z,1.30
2018-09-30T02:15:05.520Z,1.10
2018-09-30T02:17:34.847Z,1.10
2018-09-30T02:20:03.526Z,0.80
2018-09-30T02:22:32.201Z,1.00
2018-09-30T02:25:00.889Z,0.97
2018-09-30T02:27:29.572Z,0.60
2018-09-30T02:29:58.252Z,0.67
2018-09-30T02:32:26.920Z,0.80
2018-09-30T02:34:55.590Z,1.20
2018-09-30T02:37:24.263Z,0.90
2018-09-30T02:39:52.944Z,0.80
2018-09-30T02:42:21.625Z,0.90
2018-09-30T02:44:50.316Z,1.17
2018-09-30T02:47:18.993Z,1.00
2018-09-30T02:49:47.680Z,0.80
2018-09-30T02:52:16.348Z,1.23
2018-09-30T02:54:45.041Z,1.10
2018-09-30T02:57:13.703Z,1.17
2018-09-30T02:59:42.380Z,0.90
2018-09-30T03:02:11.051Z,1.10
2018-09-30T03:04:39.763Z,0.83
2018-09-30T03:07:13.920Z,0.80
2018-09-30T03:09:43.283Z,0.97
2018-09-30T03:12:12.162Z,0.90
2018-09-30T03:14:40.884Z,1.10
2018-09-30T03:17:09.563Z,1.13
2018-09-30T03:19:38.252Z,0.90
2018-09-30T03:22:06.939Z,1.10
2018-09-30T03:24:35.620Z,1.00
2018-09-30T03:27:05.239Z,1.60
2018-09-30T03:29:33.967Z,1.00
2018-09-30T03:32:02.636Z,1.20
2018-09-30T03:34:31.330Z,1.43
2018-09-30T03:37:00.035Z,1.30
2018-09-30T03:39:28.761Z,1.20
2018-09-30T03:41:57.427Z,1.23
2018-09-30T03:44:26.118Z,1.60
2018-09-30T03:46:54.792Z,1.53
2018-09-30T03:49:23.475Z,1.03
2018-09-30T03:51:52.191Z,1.20
2018-09-30T03:54:20.875Z,0.90
2018-09-30T03:56:49.635Z,1.00
2018-09-30T03:59:18.220Z,0.90
2018-09-30T04:01:46.884Z,1.20
2018-09-30T04:04:15.555Z,0.93
2018-09-30T04:06:44.219Z,1.00
2018-09-30T04:09:12.914Z,0.50
2018-09-30T04:11:41.594Z,1.23
2018-09-30T04:14:10.260Z,1.20
2018-09-30T04:16:38.939Z,1.20
2018-09-30T04:19:07.623Z,0.90
2018-09-30T04:21:36.321Z,1.00
2018-09-30T04:24:09.715Z,0.80
2018-09-30T04:26:39.388Z,0.93
2018-09-30T04:29:08.204Z,0.83
2018-09-30T04:31:36.940Z,0.90
2018-09-30T04:34:06.015Z,0.68
2018-09-30T04:36:35.632Z,1.07
2018-09-30T04:39:06.496Z,1.63
2018-09-30T04:41:35.867Z,1.00
2018-09-30T04:44:04.611Z,0.80
2018-09-30T04:46:33.311Z,1.20
2018-09-30T04:49:01.979Z,0.70
2018-09-30T04:51:30.663Z,1.30
2018-09-30T04:53:59.346Z,1.03
2018-09-30T04:56:28.032Z,1.00
2018-09-30T04:58:56.707Z,0.80
2018-09-30T05:01:25.400Z,1.00
2018-09-30T05:03:54.074Z,1.00
2018-09-30T05:06:22.771Z,1.10
2018-09-30T05:08:51.439Z,1.33
2018-09-30T05:11:20.128Z,1.02
2018-09-30T05:13:48.833Z,1.73
2018-09-30T05:16:17.526Z,1.00
2018-09-30T05:18:46.196Z,1.03
2018-09-30T05:21:14.862Z,0.93
2018-09-30T05:23:43.544Z,1.30
2018-09-30T05:26:12.210Z,1.03
2018-09-30T05:28:40.878Z,1.07
2018-09-30T05:31:09.625Z,0.93
2018-09-30T05:33:38.239Z,1.50
2018-09-30T05:36:06.919Z,1.00
2018-09-30T05:38:36.616Z,0.97
2018-09-30T05:41:05.461Z,1.03
2018-09-30T05:43:34.127Z,1.50
2018-09-30T05:46:02.807Z,1.00
2018-09-30T05:48:31.512Z,1.20
2018-09-30T05:51:00.155Z,1.23
2018-09-30T05:53:28.819Z,1.03
2018-09-30T05:55:57.503Z,0.87
2018-09-30T05:58:26.184Z,1.10
2018-09-30T06:00:54.862Z,1.03
2018-09-30T06:03:23.647Z,0.87
2018-09-30T06:05:52.323Z,1.23
2018-09-30T06:08:21.011Z,1.10
2018-09-30T06:10:49.739Z,1.00
2018-09-30T06:13:18.406Z,0.90
2018-09-30T06:15:47.135Z,1.10
2018-09-30T06:18:15.777Z,0.97
2018-09-30T06:20:44.487Z,1.10
2018-09-30T06:23:13.159Z,0.97
2018-09-30T06:25:41.911Z,1.20
2018-09-30T06:28:10.674Z,1.20
2018-09-30T06:30:39.359Z,1.43
2018-09-30T06:33:08.031Z,0.90
2018-09-30T06:35:36.883Z,1.60
2018-09-30T06:38:05.562Z,1.77
2018-09-30T06:40:34.249Z,1.43
2018-09-30T06:43:02.931Z,1.83
2018-09-30T06:45:31.813Z,1.33
2018-09-30T06:48:00.819Z,1.93
2018-09-30T06:50:29.502Z,1.23
2018-09-30T06:52:58.170Z,0.90
2018-09-30T06:55:26.873Z,1.40
2018-09-30T06:57:55.545Z,0.93
2018-09-30T07:00:24.349Z,0.93
2018-09-30T07:02:53.456Z,1.20
2018-09-30T07:05:22.327Z,0.93
2018-09-30T07:07:51.010Z,0.87
2018-09-30T07:10:19.688Z,0.90
2018-09-30T07:12:48.367Z,1.00
2018-09-30T07:15:17.035Z,0.87
2018-09-30T07:17:45.715Z,0.93
2018-09-30T07:20:14.535Z,1.00
2018-09-30T07:22:43.270Z,0.90
2018-09-30T07:25:11.972Z,1.00
2018-09-30T07:27:40.731Z,0.93
2018-09-30T07:30:09.395Z,1.27
2018-09-30T07:32:38.081Z,1.30
2018-09-30T07:35:07.248Z,0.95
2018-09-30T07:37:35.932Z,1.10
2018-09-30T07:40:04.619Z,2.07
2018-09-30T07:42:33.316Z,1.60
2018-09-30T07:45:01.984Z,1.57
2018-09-30T07:47:30.672Z,1.60
2018-09-30T07:49:59.391Z,1.20
2018-09-30T07:52:28.115Z,1.40
2018-09-30T07:54:56.762Z,0.80
2018-09-30T07:57:25.434Z,0.82
2018-09-30T07:59:54.100Z,0.87
2018-09-30T08:02:22.775Z,0.90
2018-09-30T08:04:51.447Z,1.10
2018-09-30T08:07:20.127Z,1.50
2018-09-30T08:09:48.794Z,0.80
2018-09-30T08:12:17.480Z,1.17
2018-09-30T08:14:46.147Z,1.00
2018-09-30T08:17:14.824Z,1.00
2018-09-30T08:19:43.503Z,1.13
2018-09-30T08:22:12.183Z,1.10
2018-09-30T08:24:40.893Z,1.03
2018-09-30T08:27:09.571Z,0.80
2018-09-30T08:29:38.247Z,0.80
2018-09-30T08:32:07.563Z,0.93
2018-09-30T08:34:36.245Z,0.90
2018-09-30T08:37:04.932Z,1.07
2018-09-30T08:39:33.692Z,1.50
2018-09-30T08:42:02.306Z,1.10
2018-09-30T08:44:30.979Z,1.17
2018-09-30T08:46:59.664Z,1.00
2018-09-30T08:49:28.458Z,1.00
2018-09-30T08:51:57.182Z,0.80
2018-09-30T08:54:25.860Z,0.90
2018-09-30T08:56:54.544Z,0.90
2018-09-30T08:59:23.221Z,0.80
2018-09-30T09:01:51.906Z,1.00
2018-09-30T09:04:20.613Z,1.00
2018-09-30T09:06:49.287Z,0.77
2018-09-30T09:09:17.958Z,0.80
2018-09-30T09:11:46.631Z,0.87
2018-09-30T09:14:15.304Z,0.87
2018-09-30T09:16:43.979Z,0.80
2018-09-30T09:19:12.646Z,0.70
2018-09-30T09:21:41.345Z,1.20
2018-09-30T09:24:10.020Z,1.13
2018-09-30T09:26:38.688Z,0.70
2018-09-30T09:29:08.195Z,1.12
2018-09-30T09:36:30.464Z,0.93
2018-09-30T09:38:59.164Z,0.70
2018-09-30T09:41:27.828Z,1.27
2018-09-30T09:43:56.504Z,1.20
2018-09-30T09:46:25.234Z,1.10
2018-09-30T09:48:53.907Z,1.10
2018-09-30T09:51:22.579Z,0.97
2018-09-30T09:53:51.259Z,0.90
2018-09-30T09:56:19.961Z,1.30
2018-09-30T09:58:48.714Z,0.77
2018-09-30T10:01:17.319Z,0.77
2018-09-30T10:03:45.999Z,1.10
2018-09-30T10:06:14.672Z,0.80
2018-09-30T10:08:43.357Z,0.80
2018-09-30T10:11:12.012Z,0.90
2018-09-30T10:13:40.691Z,1.03
2018-09-30T10:16:09.364Z,0.80
2018-09-30T10:18:38.398Z,0.90
2018-09-30T10:21:07.271Z,1.00
2018-09-30T10:23:35.955Z,1.10
2018-09-30T10:26:04.635Z,0.83
2018-09-30T10:28:33.319Z,0.80
2018-09-30T10:31:01.991Z,1.27
2018-09-30T10:33:30.668Z,1.40
2018-09-30T10:35:59.392Z,0.80
2018-09-30T10:38:28.187Z,0.93
2018-09-30T10:40:56.884Z,0.90
2018-09-30T10:43:25.576Z,1.00
2018-09-30T10:45:54.302Z,1.00
2018-09-30T10:48:23.087Z,0.83
2018-09-30T10:50:51.723Z,0.90
2018-09-30T10:53:20.403Z,1.10
2018-09-30T10:55:49.118Z,1.00
2018-09-30T10:58:17.847Z,0.93
2018-09-30T11:00:46.523Z,1.13
2018-09-30T11:03:15.212Z,0.80
2018-09-30T11:05:43.886Z,0.90
2018-09-30T11:08:12.570Z,1.00
2018-09-30T11:10:41.241Z,0.73
2018-09-30T11:13:09.922Z,1.13
2018-09-30T11:15:38.739Z,0.90
2018-09-30T11:18:07.422Z,0.90
2018-09-30T11:20:36.091Z,0.93
2018-09-30T11:23:04.788Z,1.00
2018-09-30T11:25:33.459Z,0.73
2018-09-30T11:28:02.153Z,1.20
2018-09-30T11:30:30.859Z,0.90
2018-09-30T11:32:59.589Z,1.27
2018-09-30T11:35:28.264Z,1.23
2018-09-30T11:37:56.952Z,0.97
2018-09-30T11:40:25.614Z,0.90
2018-09-30T11:42:54.312Z,0.90
2018-09-30T11:45:22.984Z,1.00
2018-09-30T11:47:51.669Z,1.47
2018-09-30T11:50:20.344Z,1.20
2018-09-30T11:52:49.302Z,0.90
2018-09-30T11:55:17.865Z,0.93
2018-09-30T11:57:46.527Z,1.23
2018-09-30T12:00:15.203Z,1.00
2018-09-30T12:02:43.875Z,0.90
2018-09-30T12:05:12.546Z,1.00
2018-09-30T12:07:41.224Z,1.10
2018-09-30T12:10:09.617Z,0.97
2018-09-30T12:12:39.196Z,1.07
2018-09-30T12:15:07.869Z,0.80
2018-09-30T12:17:36.531Z,1.00
2018-09-30T12:20:05.312Z,1.10
2018-09-30T12:22:33.979Z,1.00
2018-09-30T12:25:02.663Z,1.40
2018-09-30T12:27:31.347Z,0.87
2018-09-30T12:30:00.039Z,1.00
2018-09-30T12:32:28.721Z,0.97
2018-09-30T12:34:57.456Z,0.90
2018-09-30T12:37:26.151Z,1.03
2018-09-30T12:39:55.015Z,0.90
2018-09-30T12:42:23.843Z,1.13
2018-09-30T12:44:52.625Z,0.93
2018-09-30T12:47:21.299Z,1.13
2018-09-30T12:49:49.979Z,0.90
2018-09-30T12:52:18.687Z,1.00
2018-09-30T12:54:47.379Z,0.80
2018-09-30T12:57:16.061Z,1.03
2018-09-30T12:59:44.750Z,1.13
2018-09-30T13:02:13.444Z,1.10
2018-09-30T13:04:42.150Z,0.90
2018-09-30T13:07:10.815Z,0.90
2018-09-30T13:09:39.592Z,1.07
2018-09-30T13:12:08.254Z,1.10
2018-09-30T13:14:36.927Z,1.00
2018-09-30T13:17:05.604Z,0.73
2018-09-30T13:19:34.274Z,1.00
2018-09-30T13:22:02.952Z,0.90
2018-09-30T13:24:31.624Z,1.10
2018-09-30T13:27:00.319Z,1.37
2018-09-30T13:29:29.017Z,1.00
2018-09-30T13:31:57.692Z,1.00
2018-09-30T13:34:26.385Z,1.20
2018-09-30T13:36:55.052Z,1.13
2018-09-30T13:39:23.731Z,0.97
2018-09-30T13:41:52.426Z,1.53
2018-09-30T13:44:21.112Z,1.50
2018-09-30T13:46:49.789Z,1.73
2018-09-30T13:49:18.476Z,1.50
2018-09-30T13:51:47.275Z,1.20
2018-09-30T13:54:15.960Z,1.73
2018-09-30T13:56:44.648Z,2.03
2018-09-30T13:59:13.335Z,1.83
2018-09-30T14:01:42.013Z,2.10
2018-09-30T14:04:10.759Z,2.30
2018-09-30T14:06:39.935Z,1.97
2018-09-30T14:09:09.668Z,2.03
2018-09-30T14:11:38.553Z,2.20
2018-09-30T14:14:07.243Z,1.70
2018-09-30T14:16:35.919Z,2.00
2018-09-30T14:19:04.616Z,1.80
2018-09-30T14:21:33.296Z,1.80
2018-09-30T14:24:01.989Z,1.80
2018-09-30T14:26:30.653Z,2.27
2018-09-30T14:28:59.331Z,2.13
2018-09-30T14:31:28.007Z,2.03
2018-09-30T14:33:56.683Z,3.80
2018-09-30T14:36:25.440Z,2.80
2018-09-30T14:38:54.127Z,2.93
2018-09-30T14:41:22.899Z,3.10
2018-09-30T14:43:51.572Z,6.43
2018-09-30T14:46:20.272Z,19.37
2018-09-30T14:48:48.956Z,34.48
2018-09-30T14:51:17.646Z,4.60
2018-09-30T14:53:46.391Z,31.47
2018-09-30T14:56:15.131Z,29.47
2018-09-30T14:58:44.892Z,10.40
2018-09-30T15:01:13.543Z,4.93
2018-09-30T15:03:42.271Z,3.53
2018-09-30T15:06:11.111Z,4.13
2018-09-30T15:08:40.315Z,3.70
2018-09-30T15:11:09.063Z,3.27
2018-09-30T15:13:37.756Z,2.70
2018-09-30T15:16:06.439Z,3.00
2018-09-30T15:18:35.116Z,3.57
2018-09-30T15:21:03.808Z,3.00
2018-09-30T15:23:32.495Z,25.57
2018-09-30T15:26:01.178Z,5.10
2018-09-30T15:28:29.904Z,3.57
2018-09-30T15:30:58.656Z,3.37
2018-09-30T15:33:27.595Z,3.73
2018-09-30T15:35:56.289Z,4.27
2018-09-30T15:38:25.019Z,3.13
2018-09-30T15:40:53.712Z,3.23
2018-09-30T15:43:22.408Z,3.47
2018-09-30T15:45:51.103Z,3.50
2018-09-30T15:48:19.780Z,3.77
2018-09-30T15:50:48.467Z,5.07
2018-09-30T15:53:17.134Z,3.53
2018-09-30T15:55:45.827Z,2.97
2018-09-30T15:58:14.515Z,2.67
2018-09-30T16:00:43.199Z,3.77
2018-09-30T16:03:12.566Z,3.13
2018-09-30T16:05:41.257Z,3.07
2018-09-30T16:08:10.030Z,4.20
2018-09-30T16:10:38.712Z,4.90
2018-09-30T16:13:07.437Z,3.17
2018-09-30T16:15:36.072Z,3.80
2018-09-30T16:18:04.740Z,3.43
2018-09-30T16:20:33.470Z,3.43
2018-09-30T16:23:02.164Z,2.63
2018-09-30T16:25:30.908Z,3.23
2018-09-30T16:27:59.588Z,2.73
2018-09-30T16:30:28.279Z,2.80
2018-09-30T16:32:57.020Z,1.97
2018-09-30T16:35:25.728Z,2.97
2018-09-30T16:37:54.699Z,3.27
2018-09-30T16:40:23.427Z,4.50
2018-09-30T16:42:52.142Z,3.80
2018-09-30T16:45:20.857Z,4.43
2018-09-30T16:47:49.573Z,6.17
2018-09-30T16:50:18.267Z,9.73
2018-09-30T16:52:46.966Z,10.43
2018-09-30T16:55:15.690Z,6.23
2018-09-30T16:57:44.397Z,6.13
2018-09-30T17:00:13.092Z,5.23
2018-09-30T17:02:41.791Z,4.80
2018-09-30T17:05:10.635Z,3.63
2018-09-30T17:07:39.426Z,4.23
2018-09-30T17:10:08.240Z,4.20
2018-09-30T17:12:36.949Z,4.47
2018-09-30T17:15:05.707Z,3.90
2018-09-30T17:17:34.419Z,4.40
2018-09-30T17:20:03.277Z,3.97
2018-09-30T17:22:32.011Z,5.83
2018-09-30T17:25:01.152Z,3.83
2018-09-30T17:27:29.830Z,2.95
2018-09-30T17:29:58.498Z,3.13
2018-09-30T17:32:27.195Z,5.13
2018-09-30T17:34:55.880Z,5.70
2018-09-30T17:37:25.025Z,6.83
2018-09-30T17:39:54.104Z,4.47
2018-09-30T17:42:22.794Z,5.50
2018-09-30T17:44:51.471Z,6.10
2018-09-30T17:47:20.145Z,5.57
2018-09-30T17:49:49.039Z,4.97
2018-09-30T17:52:17.728Z,5.27
2018-09-30T17:54:46.403Z,5.63
2018-09-30T17:57:15.080Z,4.20
2018-09-30T17:59:43.795Z,4.30
2018-09-30T18:02:12.484Z,3.47
2018-09-30T18:04:41.160Z,4.10
2018-09-30T18:07:09.847Z,3.00
2018-09-30T18:09:38.536Z,2.83
2018-09-30T18:12:07.243Z,3.57
2018-09-30T18:14:35.929Z,4.13
2018-09-30T18:17:04.679Z,3.57
2018-09-30T18:19:33.391Z,2.83
2018-09-30T18:22:02.082Z,3.47
2018-09-30T18:24:30.752Z,3.03
2018-09-30T18:26:59.439Z,2.67
2018-09-30T18:29:28.141Z,3.07
2018-09-30T18:31:56.827Z,3.00
2018-09-30T18:34:25.539Z,2.93
2018-09-30T18:36:54.233Z,3.33
2018-09-30T18:39:22.975Z,2.77
2018-09-30T18:41:51.775Z,2.80
2018-09-30T18:44:20.452Z,2.73
2018-09-30T18:46:49.136Z,2.77
2018-09-30T18:49:17.804Z,2.30
2018-09-30T18:51:46.582Z,2.90
2018-09-30T18:54:15.304Z,2.60
2018-09-30T18:56:44.371Z,2.40
2018-09-30T18:59:13.053Z,3.00
2018-09-30T19:01:41.737Z,2.30
2018-09-30T19:04:10.404Z,2.70
2018-09-30T19:06:39.083Z,2.40
2018-09-30T19:09:08.695Z,2.83
2018-09-30T19:11:37.380Z,2.63
2018-09-30T19:14:06.481Z,2.60
2018-09-30T19:16:35.367Z,2.37
2018-09-30T19:19:04.472Z,2.60
2018-09-30T19:21:33.135Z,2.70
2018-09-30T19:24:01.811Z,2.77
2018-09-30T19:26:30.496Z,3.33
2018-09-30T19:28:59.159Z,3.13
2018-09-30T19:31:27.853Z,3.17
2018-09-30T19:33:56.519Z,2.53
2018-09-30T19:36:25.381Z,2.93
2018-09-30T19:38:53.979Z,2.90
2018-09-30T19:41:22.664Z,2.70
2018-09-30T19:43:51.348Z,2.77
2018-09-30T19:46:20.058Z,2.97
2018-09-30T19:48:48.856Z,2.77
2018-09-30T19:51:17.464Z,2.50
2018-09-30T19:53:46.135Z,2.47
2018-09-30T19:56:14.811Z,2.50
2018-09-30T19:58:44.399Z,2.50
2018-09-30T20:01:13.103Z,2.50
2018-09-30T20:03:41.787Z,2.67
2018-09-30T20:06:10.477Z,2.40
2018-09-30T20:08:39.166Z,2.50
2018-09-30T20:11:07.841Z,2.10
2018-09-30T20:13:36.519Z,2.17
2018-09-30T20:16:05.268Z,2.40
2018-09-30T20:18:33.948Z,2.43
2018-09-30T20:21:02.903Z,2.93
2018-09-30T20:23:31.591Z,2.37
2018-09-30T20:26:00.288Z,2.67
2018-09-30T20:28:29.059Z,2.97
2018-09-30T20:30:58.468Z,3.03
2018-09-30T20:33:27.251Z,2.20
2018-09-30T20:35:55.919Z,2.73
2018-09-30T20:38:24.604Z,2.20
2018-09-30T20:43:17.905Z,1.90
2018-09-30T20:45:46.606Z,2.40
2018-09-30T20:48:15.283Z,2.13
2018-09-30T20:50:44.866Z,2.30
2018-09-30T20:53:13.543Z,2.80
2018-09-30T20:55:42.264Z,2.67
2018-09-30T20:58:11.383Z,2.73
2018-09-30T21:00:40.063Z,3.03
2018-09-30T21:03:08.819Z,2.37
2018-09-30T21:05:49.278Z,2.40
2018-09-30T21:08:18.064Z,2.70
2018-09-30T21:10:46.741Z,2.20
2018-09-30T21:13:15.425Z,2.90
2018-09-30T21:15:44.999Z,2.97
2018-09-30T21:18:13.674Z,2.53
2018-09-30T21:20:42.354Z,2.83
2018-09-30T21:23:11.027Z,2.80
2018-09-30T21:25:39.703Z,2.20
2018-09-30T21:28:08.428Z,2.37
2018-09-30T21:30:37.055Z,2.23
2018-09-30T21:33:05.815Z,2.83
2018-09-30T21:35:34.483Z,4.47
2018-09-30T21:38:03.220Z,4.13
2018-09-30T21:40:31.891Z,2.53
2018-09-30T21:43:00.599Z,3.03
2018-09-30T21:45:29.263Z,2.73
2018-09-30T21:47:57.937Z,2.67
2018-09-30T21:50:26.647Z,2.58
2018-09-30T21:52:55.376Z,3.47
2018-09-30T21:55:24.101Z,2.63
2018-09-30T21:57:52.815Z,2.63
2018-09-30T22:00:27.055Z,2.60
2018-09-30T22:02:55.788Z,2.37
2018-09-30T22:05:24.463Z,3.00
2018-09-30T22:07:53.207Z,2.80
2018-09-30T22:10:21.886Z,3.20
2018-09-30T22:12:50.573Z,3.40
2018-09-30T22:15:19.400Z,2.10
2018-09-30T22:17:48.132Z,2.90
2018-09-30T22:20:16.803Z,2.00
2018-09-30T22:22:45.499Z,2.30
2018-09-30T22:25:14.167Z,2.17
2018-09-30T22:27:43.549Z,2.97
2018-09-30T22:30:12.543Z,3.50
2018-09-30T22:32:41.419Z,2.77
2018-09-30T22:35:10.428Z,2.60
2018-09-30T22:37:39.107Z,2.53
2018-09-30T22:40:08.133Z,2.20
2018-09-30T22:42:37.080Z,2.10
2018-09-30T22:45:05.983Z,2.33
2018-09-30T22:47:35.376Z,2.30
2018-09-30T22:50:04.076Z,2.13
2018-09-30T22:52:32.824Z,2.77
2018-09-30T22:55:01.512Z,2.63
2018-09-30T22:57:30.223Z,2.23
2018-09-30T22:59:58.899Z,1.87
2018-09-30T23:02:27.582Z,2.50
2018-09-30T23:04:56.269Z,1.60
2018-09-30T23:07:24.935Z,2.10
2018-09-30T23:09:53.619Z,2.50
2018-09-30T23:12:22.297Z,2.10
2018-09-30T23:14:50.975Z,2.07
2018-09-30T23:17:19.657Z,2.20
2018-09-30T23:19:48.336Z,2.00
2018-09-30T23:22:17.011Z,2.37
2018-09-30T23:24:45.853Z,2.35
2018-09-30T23:27:14.523Z,2.00
2018-09-30T23:29:43.212Z,2.40
2018-09-30T23:32:11.875Z,2.27
2018-09-30T23:34:40.555Z,2.30
2018-09-30T23:37:09.222Z,2.30
2018-09-30T23:39:37.899Z,2.43
2018-09-30T23:42:06.607Z,1.87
2018-09-30T23:44:35.283Z,2.77
2018-09-30T23:47:03.960Z,2.30
2018-09-30T23:49:32.642Z,2.07
2018-09-30T23:52:01.335Z,2.10
2018-09-30T23:54:30.051Z,2.27
2018-09-30T23:56:58.723Z,2.13
2018-09-30T23:59:27.400Z,2.17
